Time;durP1;ratioP1;P1;durP2;ratioP2;P2;SDS_P1;SDS_P2;PMS_P1;PMS_P2;Temp;Humidity;BMP_temperature;BMP_pressure;BME280_temperature;BME280_humidity;BME280_pressure;Samples;Min_cycle;Max_cycle;Signal;HPM_P1;HPM_P2
2022/05/13 00:01:06;;;;;;;;;;;;;;;12.27;78.40;97579.83;109859;1250;69545;-71
2022/05/13 00:03:38;;;;;;;12.50;10.10;;;;;;;12.25;78.78;97577.89;109841;1252;59729;-70
2022/05/13 00:06:09;;;;;;;12.00;9.50;;;;;;;12.24;79.61;97577.56;110157;1249;59702;-71
2022/05/13 00:08:39;;;;;;;11.80;9.00;;;;;;;12.23;76.73;97575.57;110183;1250;71515;-71
2022/05/13 00:11:10;;;;;;;10.90;9.50;;;;;;;12.21;76.57;97571.20;109960;1250;67732;-73
2022/05/13 00:13:42;;;;;;;10.40;9.10;;;;;;;12.19;78.59;97573.27;109959;1250;69454;-71
2022/05/13 00:16:12;;;;;;;9.40;8.20;;;;;;;12.16;77.07;97575.42;109652;1253;59759;-70
2022/05/13 00:18:43;;;;;;;9.50;8.50;;;;;;;12.12;78.06;97576.42;109943;1250;59605;-70
2022/05/13 00:21:14;;;;;;;12.10;9.60;;;;;;;12.08;78.25;97578.84;109795;1250;71537;-71
2022/05/13 00:23:44;;;;;;;11.40;9.30;;;;;;;12.05;78.71;97577.64;109948;1250;68808;-71
2022/05/13 00:26:14;;;;;;;11.20;10.00;;;;;;;12.04;77.57;97574.45;109983;1249;68563;-71
2022/05/13 00:28:45;;;;;;;10.00;9.00;;;;;;;12.05;79.91;97576.23;109796;1250;59659;-72
2022/05/13 00:31:16;;;;;;;11.60;9.20;;;;;;;12.05;79.15;97573.84;109889;1250;59722;-72
2022/05/13 00:33:46;;;;;;;11.90;10.60;;;;;;;12.03;80.30;97574.98;110192;1250;71450;-70
2022/05/13 00:36:17;;;;;;;12.30;9.90;;;;;;;12.01;80.98;97570.95;110186;1250;68033;-70
2022/05/13 00:38:47;;;;;;;14.10;10.90;;;;;;;12.01;81.02;97569.20;110200;1250;69062;-71
2022/05/13 00:41:19;;;;;;;11.50;9.90;;;;;;;12.00;80.55;97570.35;110161;1249;59684;-71
2022/05/13 00:43:54;;;;;;;13.50;10.30;;;;;;;11.98;80.69;97569.12;109869;1250;59716;-70
2022/05/13 00:46:26;;;;;;;10.30;8.90;;;;;;;11.96;79.73;97571.34;109988;1250;71123;-70
2022/05/13 00:49:01;;;;;;;11.60;8.20;;;;;;;11.95;79.63;97576.10;109971;1249;67847;-72
2022/05/13 00:51:40;;;;;;;12.10;9.90;;;;;;;11.95;80.24;97580.34;110157;1250;69377;-69
2022/05/13 00:54:13;;;;;;;10.80;9.40;;;;;;;11.93;79.82;97580.16;110194;1250;59683;-70
2022/05/13 00:56:47;;;;;;;11.30;9.60;;;;;;;11.91;79.23;97580.50;110086;1250;59700;-71
2022/05/13 00:59:22;;;;;;;12.00;9.70;;;;;;;11.88;80.80;97581.38;110219;1250;70702;-70
2022/05/13 01:01:53;;;;;;;11.40;8.60;;;;;;;11.84;79.19;97583.05;110197;1249;68563;-69
2022/05/13 01:04:29;;;;;;;10.30;8.80;;;;;;;11.80;76.75;97584.91;110180;1250;68663;-69
2022/05/13 01:07:05;;;;;;;11.50;9.40;;;;;;;11.74;79.91;97586.64;110187;1250;59721;-71
2022/05/13 01:09:40;;;;;;;10.30;8.80;;;;;;;11.66;80.08;97584.90;109978;1250;59697;-70
2022/05/13 01:12:17;;;;;;;13.60;10.60;;;;;;;11.58;80.75;97586.56;110193;1250;70762;-70
2022/05/13 01:14:56;;;;;;;10.90;9.80;;;;;;;11.51;81.10;97582.54;110073;1249;68405;-71
2022/05/13 01:20:26;;;;;;;10.80;9.60;;;;;;;11.38;80.93;97579.67;110040;1249;59693;-70
2022/05/13 01:23:12;;;;;;;11.60;10.40;;;;;;;11.33;80.66;97581.60;110014;1250;59741;-71
2022/05/13 01:25:48;;;;;;;10.60;9.10;;;;;;;11.28;80.88;97586.17;109944;1250;71590;-71
2022/05/13 01:28:24;;;;;;;11.80;9.60;;;;;;;11.27;81.59;97581.38;110055;1251;68471;-70
2022/05/13 01:31:00;;;;;;;10.70;9.20;;;;;;;11.26;82.89;97580.90;109715;1250;68678;-70
2022/05/13 01:33:31;;;;;;;11.90;10.50;;;;;;;11.26;83.19;97575.64;109911;1250;59730;-70
2022/05/13 01:36:05;;;;;;;12.30;10.70;;;;;;;11.26;82.46;97574.30;110105;1250;59674;-70
2022/05/13 01:38:37;;;;;;;11.30;8.70;;;;;;;11.25;82.50;97575.38;110225;1250;70653;-70
2022/05/13 01:41:10;;;;;;;9.20;8.10;;;;;;;11.25;81.11;97577.51;109990;1250;67617;-70
2022/05/13 01:43:42;;;;;;;9.80;7.50;;;;;;;11.25;79.52;97576.42;109804;1251;69383;-70
2022/05/13 01:46:13;;;;;;;11.40;8.60;;;;;;;11.25;78.44;97577.50;110044;1250;59721;-70
2022/05/13 01:48:44;;;;;;;10.70;7.60;;;;;;;11.25;78.53;97576.27;110018;1250;59662;-70
2022/05/13 01:51:14;;;;;;;;;;;;;;;11.25;80.69;97571.27;110255;1247;71606;-70
2022/05/13 01:53:44;;;;;;;16.40;10.30;;;;;;;11.22;83.84;97570.70;110178;1250;68582;-70
2022/05/13 01:56:15;;;;;;;12.00;10.50;;;;;;;11.19;84.01;97569.86;110240;1250;69237;-69
2022/05/13 01:58:45;;;;;;;12.00;10.20;;;;;;;11.16;83.52;97569.23;109941;1250;59707;-70
2022/05/13 02:01:15;;;;;;;12.40;10.10;;;;;;;11.14;82.93;97570.27;110187;1249;59688;-70
2022/05/13 02:03:45;;;;;;;11.90;9.70;;;;;;;11.11;83.50;97569.94;110172;1249;70595;-70
2022/05/13 02:06:28;;;;;;;13.30;11.50;;;;;;;11.08;83.62;97570.67;109894;1251;67814;-70
2022/05/13 02:08:58;;;;;;;13.60;10.80;;;;;;;11.06;83.04;97568.58;110190;1250;68535;-72
2022/05/13 02:11:30;;;;;;;11.90;9.40;;;;;;;11.05;83.30;97573.35;110157;1249;59728;-72
2022/05/13 02:14:00;;;;;;;12.30;10.30;;;;;;;11.04;83.66;97572.55;110136;1249;59685;-70
2022/05/13 02:16:30;;;;;;;12.50;9.30;;;;;;;11.03;84.19;97574.73;109955;1251;70922;-71
2022/05/13 02:19:01;;;;;;;10.60;8.70;;;;;;;11.01;83.09;97575.92;109954;1250;67863;-71
2022/05/13 02:21:31;;;;;;;10.50;7.80;;;;;;;10.98;81.68;97572.83;109789;1253;69294;-71
2022/05/13 02:24:01;;;;;;;12.30;10.00;;;;;;;10.96;82.17;97576.45;110167;1250;59745;-70
2022/05/13 02:26:32;;;;;;;11.20;9.70;;;;;;;10.92;83.24;97575.84;110188;1250;59659;-71
2022/05/13 02:29:02;;;;;;;12.10;10.30;;;;;;;10.87;82.81;97577.40;109928;1251;70773;-71
2022/05/13 02:31:34;;;;;;;10.90;8.50;;;;;;;10.82;82.27;97573.11;109989;1250;67775;-72
2022/05/13 02:34:04;;;;;;;10.50;8.40;;;;;;;10.77;83.35;97574.84;109935;1250;69381;-71
2022/05/13 02:36:33;;;;;;;12.40;10.00;;;;;;;10.72;83.25;97572.57;109924;1250;59745;-70
2022/05/13 02:39:03;;;;;;;11.10;9.80;;;;;;;10.66;83.96;97572.23;109934;1250;59649;-70
2022/05/13 02:41:34;;;;;;;11.60;10.30;;;;;;;10.64;84.01;97572.09;109820;1250;70822;-70
2022/05/13 02:44:05;;;;;;;11.90;10.30;;;;;;;10.61;83.34;97571.07;109854;1252;67400;-69
2022/05/13 02:46:42;;;;;;;9.50;7.90;;;;;;;10.57;82.11;97573.44;109976;1250;68479;-69
2022/05/13 02:49:11;;;;;;;;;;;;;;;10.56;83.72;97573.34;110148;1250;59689;-71
2022/05/13 02:51:45;;;;;;;9.50;8.20;;;;;;;10.53;81.04;97574.25;110085;1250;59725;-71
2022/05/13 02:54:17;;;;;;;12.30;10.70;;;;;;;10.55;82.12;97571.31;110164;1250;71520;-70
2022/05/13 02:56:46;;;;;;;10.90;8.30;;;;;;;10.57;83.33;97573.81;110229;1250;68413;-70
2022/05/13 02:59:16;;;;;;;11.50;9.10;;;;;;;10.59;80.49;97571.20;110103;1250;69202;-69
2022/05/13 03:01:46;;;;;;;13.10;10.30;;;;;;;10.62;80.05;97570.96;110190;1250;59695;-70
2022/05/13 03:04:16;;;;;;;13.10;10.10;;;;;;;10.67;82.48;97571.14;109917;1250;59702;-70
2022/05/13 03:06:45;;;;;;;10.60;8.80;;;;;;;10.70;81.47;97574.27;110039;1250;71555;-69
2022/05/13 03:09:14;;;;;;;11.20;10.00;;;;;;;10.72;82.51;97580.06;110184;1250;67791;-71
2022/05/13 03:11:44;;;;;;;9.90;7.60;;;;;;;10.70;81.84;97581.59;110159;1250;68637;-69
2022/05/13 03:14:14;;;;;;;10.70;9.60;;;;;;;10.69;82.42;97580.64;110081;1250;59744;-68
2022/05/13 03:16:43;;;;;;;10.60;8.20;;;;;;;10.67;82.28;97579.31;110162;1250;59687;-69
2022/05/13 03:19:13;;;;;;;10.30;9.20;;;;;;;10.68;81.96;97580.70;110127;1250;71558;-69
2022/05/13 03:21:42;;;;;;;10.70;8.90;;;;;;;10.69;83.10;97573.98;110127;1250;67655;-69
2022/05/13 03:24:12;;;;;;;;;;;;;;;10.68;83.72;97576.31;110145;1249;69308;-69
2022/05/13 03:26:41;;;;;;;13.00;10.80;;;;;;;10.70;85.15;97577.95;110043;1250;59673;-69
2022/05/13 03:29:11;;;;;;;12.10;9.60;;;;;;;10.73;84.48;97578.12;110164;1250;59668;-70
2022/05/13 03:31:41;;;;;;;11.60;9.80;;;;;;;10.74;84.25;97576.82;110159;1250;70712;-70
2022/05/13 03:34:11;;;;;;;11.40;9.20;;;;;;;10.75;84.72;97576.58;110142;1250;68555;-71
2022/05/13 03:36:42;;;;;;;12.70;10.40;;;;;;;10.78;84.71;97579.32;110042;1250;69207;-69
2022/05/13 03:39:11;;;;;;;9.50;8.50;;;;;;;10.82;84.43;97583.57;109886;1251;59717;-69
2022/05/13 03:41:41;;;;;;;11.20;10.00;;;;;;;10.87;83.92;97582.98;110133;1249;59688;-71
2022/05/13 03:44:10;;;;;;;9.20;7.50;;;;;;;10.94;84.51;97581.48;109959;1250;70882;-71
2022/05/13 03:46:40;;;;;;;12.60;10.70;;;;;;;10.99;82.70;97588.59;109951;1250;68577;-70
2022/05/13 03:49:09;;;;;;;11.90;9.40;;;;;;;11.05;83.62;97596.52;109900;1251;68689;-69
2022/05/13 03:51:39;;;;;;;;;;;;;;;11.10;82.61;97598.12;109852;1251;59728;-69
2022/05/13 03:54:08;;;;;;;9.50;8.30;;;;;;;11.16;83.48;97596.23;110143;1250;59721;-70
2022/05/13 03:56:38;;;;;;;9.50;8.20;;;;;;;11.23;83.04;97599.11;110016;1251;70601;-70
2022/05/13 03:59:08;;;;;;;11.90;9.30;;;;;;;11.32;83.62;97601.95;110111;1250;68545;-69
2022/05/13 04:01:37;;;;;;;11.20;8.80;;;;;;;11.41;82.94;97602.29;109913;1251;68666;-69
2022/05/13 04:04:07;;;;;;;10.30;9.20;;;;;;;11.50;82.47;97601.27;109940;1251;59725;-70
2022/05/13 04:09:33;;;;;;;11.40;8.30;;;;;;;11.69;81.79;97605.48;109952;1251;71390;-70
2022/05/13 04:17:43;;;;;;;12.20;9.80;;;;;;;12.25;79.82;97600.95;109710;1250;59778;-70
2022/05/13 04:20:14;;;;;;;12.10;9.10;;;;;;;12.50;79.18;97601.79;109793;1253;60132;-70
2022/05/13 04:22:43;;;;;;;10.70;8.70;;;;;;;12.76;79.12;97603.42;109903;1251;71408;-71
2022/05/13 04:25:13;;;;;;;11.20;9.60;;;;;;;12.94;78.97;97602.55;109837;1253;68446;-70
2022/05/13 04:27:42;;;;;;;16.40;11.00;;;;;;;13.10;78.15;97605.29;109917;1250;68492;-72
2022/05/13 04:30:12;;;;;;;17.20;12.90;;;;;;;13.22;77.20;97609.39;109853;1250;59752;-71
2022/05/13 04:32:42;;;;;;;18.00;12.40;;;;;;;13.34;76.59;97611.83;109791;1251;59740;-68
2022/05/13 04:35:11;;;;;;;14.90;12.60;;;;;;;13.42;76.70;97613.45;109850;1250;71606;-72
2022/05/13 04:37:41;;;;;;;13.00;9.70;;;;;;;13.52;76.48;97613.67;109859;1251;68129;-71
2022/05/13 04:40:11;;;;;;;;;;;;;;;13.63;76.26;97610.98;109685;1252;68489;-72
2022/05/13 04:42:50;;;;;;;9.80;7.00;;;;;;;13.75;75.75;97608.11;109897;1250;59642;-71
2022/05/13 04:45:28;;;;;;;9.70;8.70;;;;;;;13.90;75.83;97609.66;109913;1250;59736;-71
2022/05/13 04:48:16;;;;;;;12.00;9.10;;;;;;;14.03;75.21;97614.21;109836;1252;71542;-71
2022/05/13 04:50:53;;;;;;;12.40;10.70;;;;;;;14.08;74.71;97615.71;109860;1250;67771;-69
2022/05/13 04:53:26;;;;;;;11.80;9.90;;;;;;;14.21;75.34;97614.10;109895;1253;68663;-70
2022/05/13 04:55:57;;;;;;;14.60;11.40;;;;;;;14.41;75.13;97612.52;109723;1252;59709;-72
2022/05/13 04:58:27;;;;;;;11.60;10.00;;;;;;;14.64;74.77;97616.07;109818;1251;59669;-71
2022/05/13 05:00:58;;;;;;;18.20;12.30;;;;;;;14.89;73.64;97617.95;109731;1251;70885;-71
2022/05/13 05:03:30;;;;;;;13.70;10.30;;;;;;;15.16;73.26;97617.30;109794;1251;68606;-70
2022/05/13 05:06:00;;;;;;;14.10;10.00;;;;;;;15.45;71.76;97616.52;109983;1250;69445;-70
2022/05/13 05:08:30;;;;;;;15.00;9.30;;;;;;;15.81;71.11;97615.08;109871;1250;59665;-71
2022/05/13 05:11:03;;;;;;;12.90;10.40;;;;;;;16.22;68.88;97617.45;110224;1250;59669;-72
2022/05/13 05:13:36;;;;;;;10.10;9.10;;;;;;;16.64;67.49;97618.62;110130;1249;71488;-71
2022/05/13 05:16:06;;;;;;;11.50;9.00;;;;;;;17.12;65.55;97621.78;110139;1250;68768;-71
2022/05/13 05:18:37;;;;;;;9.90;7.60;;;;;;;17.67;67.63;97621.88;109694;1251;68688;-71
2022/05/13 05:21:08;;;;;;;11.50;7.70;;;;;;;18.22;68.97;97621.86;110199;1249;59690;-71
2022/05/13 05:23:40;;;;;;;8.70;6.90;;;;;;;18.73;68.09;97626.21;109892;1251;59791;-71
2022/05/13 05:26:11;;;;;;;8.10;7.30;;;;;;;19.20;63.94;97624.90;109877;1251;70843;-71
2022/05/13 05:28:41;;;;;;;9.20;7.60;;;;;;;19.58;62.21;97623.19;110121;1250;68581;-72
2022/05/13 05:31:12;;;;;;;10.80;7.50;;;;;;;19.89;58.72;97619.20;109933;1251;68508;-72
2022/05/13 05:33:42;;;;;;;10.30;7.40;;;;;;;20.12;55.16;97620.93;110156;1250;59693;-71
2022/05/13 05:36:11;;;;;;;9.30;7.40;;;;;;;20.04;54.66;97618.61;110049;1250;60093;-72
2022/05/13 05:38:40;;;;;;;11.80;6.50;;;;;;;20.21;54.25;97623.35;110008;1251;71549;-71
2022/05/13 05:41:10;;;;;;;;;;;;;;;20.17;53.28;97618.87;109733;1253;68394;-72
2022/05/13 05:43:39;;;;;;;9.40;6.30;;;;;;;20.20;53.18;97619.23;109886;1250;69494;-71
2022/05/13 05:46:08;;;;;;;9.50;6.90;;;;;;;20.16;53.24;97621.25;110158;1250;59668;-72
2022/05/13 05:48:37;;;;;;;6.20;5.60;;;;;;;20.02;52.94;97621.89;110170;1250;60877;-74
2022/05/13 05:51:06;;;;;;;8.30;6.40;;;;;;;20.39;53.15;97619.16;110210;1250;71478;-73
2022/05/13 05:59:10;;;;;;;8.60;6.40;;;;;;;20.71;51.63;97616.98;109814;1251;59727;-72
2022/05/13 06:01:39;;;;;;;7.90;5.90;;;;;;;20.98;50.66;97616.44;109815;1251;59712;-70
2022/05/13 06:04:08;;;;;;;6.70;6.00;;;;;;;21.29;49.86;97617.77;109963;1251;71590;-71
2022/05/13 06:06:37;;;;;;;7.20;5.90;;;;;;;21.48;49.37;97622.89;109886;1251;68574;-71
2022/05/13 06:09:08;;;;;;;6.40;5.60;;;;;;;21.63;49.19;97624.38;110124;1250;68692;-72
2022/05/13 06:11:37;;;;;;;6.30;4.60;;;;;;;21.56;47.25;97624.45;109917;1251;59737;-71
2022/05/13 06:14:09;;;;;;;6.60;4.50;;;;;;;21.63;47.77;97626.14;110156;1250;59722;-71
2022/05/13 06:16:39;;;;;;;7.50;6.00;;;;;;;22.10;47.10;97628.00;109843;1252;70647;-70
2022/05/13 06:19:08;;;;;;;7.00;5.30;;;;;;;22.40;47.04;97627.50;110001;1250;68441;-71
2022/05/13 06:21:37;;;;;;;5.70;4.70;;;;;;;22.95;46.28;97626.39;109951;1251;68729;-71
2022/05/13 06:24:06;;;;;;;;;;;;;;;23.35;45.21;97625.36;109979;1251;60073;-72
2022/05/13 06:26:36;;;;;;;6.00;5.30;;;;;;;23.47;43.62;97624.62;109930;1251;59661;-72
2022/05/13 06:29:05;;;;;;;7.00;5.30;;;;;;;23.40;43.53;97625.58;109887;1251;71589;-71
2022/05/13 06:31:34;;;;;;;11.80;5.50;;;;;;;23.44;43.24;97624.59;110022;1250;68616;-71
2022/05/13 06:34:05;;;;;;;7.60;5.80;;;;;;;23.58;42.87;97627.89;109718;1251;69421;-73
2022/05/13 06:36:34;;;;;;;5.40;4.70;;;;;;;23.53;41.83;97624.42;109903;1251;59717;-72
2022/05/13 06:39:06;;;;;;;6.90;5.40;;;;;;;23.71;42.44;97625.72;110186;1250;59690;-72
2022/05/13 06:41:40;;;;;;;5.60;4.90;;;;;;;23.82;42.29;97628.07;109967;1250;71515;-72
2022/05/13 06:44:10;;;;;;;6.10;5.20;;;;;;;24.04;41.74;97622.54;109905;1250;68495;-73
2022/05/13 06:46:39;;;;;;;6.10;5.30;;;;;;;24.41;40.13;97616.65;109762;1250;68879;-72
2022/05/13 06:49:11;;;;;;;5.70;4.30;;;;;;;24.66;38.86;97610.39;109791;1250;59788;-73
2022/05/13 06:51:40;;;;;;;5.30;4.80;;;;;;;24.95;39.61;97614.71;109987;1250;59608;-72
2022/05/13 06:54:12;;;;;;;5.50;4.80;;;;;;;25.37;38.81;97614.85;109770;1251;70741;-73
2022/05/13 06:56:54;;;;;;;6.20;5.00;;;;;;;25.53;37.46;97615.52;110182;1250;67802;-75
2022/05/13 06:59:28;;;;;;;4.90;4.20;;;;;;;25.22;38.02;97607.73;110136;1247;69294;-72
2022/05/13 07:01:57;;;;;;;4.70;4.20;;;;;;;25.42;38.16;97610.77;109843;1251;59748;-71
2022/05/13 07:04:26;;;;;;;4.60;4.10;;;;;;;25.40;36.98;97608.73;109989;1251;59613;-71
2022/05/13 07:07:01;;;;;;;5.90;4.50;;;;;;;25.60;36.59;97612.20;109964;1251;71546;-71
2022/05/13 07:09:31;;;;;;;7.20;4.90;;;;;;;25.76;36.86;97622.05;110015;1251;67934;-72
2022/05/13 07:12:03;;;;;;;8.00;5.20;;;;;;;26.11;36.04;97622.55;109994;1251;68531;-72
2022/05/13 07:14:34;;;;;;;5.70;5.20;;;;;;;26.33;35.79;97619.75;110114;1250;59740;-72
2022/05/13 07:17:07;;;;;;;6.20;4.40;;;;;;;26.44;35.43;97617.52;109957;1251;59622;-72
2022/05/13 07:19:37;;;;;;;5.90;4.70;;;;;;;26.70;35.10;97611.58;110069;1250;71551;-72
2022/05/13 07:22:06;;;;;;;5.10;4.50;;;;;;;26.86;35.09;97609.89;109865;1251;68111;-73
2022/05/13 07:24:35;;;;;;;;;;;;;;;26.79;34.17;97610.27;109940;1251;68911;-72
2022/05/13 07:27:05;;;;;;;5.70;5.00;;;;;;;26.48;34.95;97610.02;109838;1251;59697;-72
2022/05/13 07:29:35;;;;;;;8.80;4.90;;;;;;;26.37;35.08;97610.81;109971;1251;59692;-72
2022/05/13 07:32:04;;;;;;;;;;;;;;;26.05;35.45;97609.27;109820;1252;70793;-73
2022/05/13 07:34:35;;;;;;;7.50;5.80;;;;;;;26.32;35.42;97610.38;109943;1251;66891;-74
2022/05/13 07:37:06;;;;;;;6.30;4.80;;;;;;;26.60;34.73;97602.43;109801;1253;69716;-71
2022/05/13 07:42:23;;;;;;;6.40;5.10;;;;;;;27.01;33.69;97605.77;109974;1251;59729;-72
2022/05/13 07:44:52;;;;;;;5.20;4.60;;;;;;;26.43;34.12;97604.30;109771;1251;71501;-72
2022/05/13 07:47:27;;;;;;;5.90;5.20;;;;;;;26.33;34.72;97605.07;109847;1251;67932;-71
2022/05/13 07:49:56;;;;;;;6.10;5.20;;;;;;;26.25;34.54;97606.76;109946;1251;69492;-71
2022/05/13 07:52:26;;;;;;;6.00;5.20;;;;;;;26.27;34.75;97603.42;109973;1251;59758;-71
2022/05/13 07:54:56;;;;;;;5.80;5.20;;;;;;;26.53;34.12;97603.69;109965;1250;59734;-72
2022/05/13 07:57:25;;;;;;;5.40;4.80;;;;;;;26.59;33.74;97599.98;109980;1251;70764;-74
2022/05/13 08:02:43;;;;;;;6.80;5.10;;;;;;;26.96;33.70;97601.73;110045;1251;69419;-72
2022/05/13 08:05:12;;;;;;;6.70;4.90;;;;;;;26.94;33.49;97596.95;109895;1250;59773;-73
2022/05/13 08:07:40;;;;;;;;;;;;;;;27.76;33.55;97600.66;110040;1250;59669;-72
2022/05/13 08:10:10;;;;;;;6.10;5.10;;;;;;;28.14;32.45;97594.91;110007;1251;71480;-71
2022/05/13 08:12:42;;;;;;;6.10;5.40;;;;;;;28.23;32.21;97590.85;110052;1251;68615;-72
2022/05/13 08:15:12;;;;;;;6.40;5.00;;;;;;;28.18;32.34;97587.90;109740;1251;69458;-71
2022/05/13 08:17:46;;;;;;;6.10;5.50;;;;;;;28.28;32.59;97585.42;109795;1251;59667;-70
2022/05/13 08:20:16;;;;;;;5.60;5.00;;;;;;;28.42;31.67;97586.53;109749;1251;59658;-71
2022/05/13 08:22:47;;;;;;;5.70;5.20;;;;;;;28.65;31.22;97582.58;109871;1251;71639;-71
2022/05/13 08:25:20;;;;;;;6.70;4.90;;;;;;;29.16;30.92;97585.88;109878;1249;67799;-71
2022/05/13 08:27:51;;;;;;;6.50;5.50;;;;;;;29.30;30.90;97586.65;109867;1251;69224;-71
2022/05/13 08:30:21;;;;;;;6.60;4.90;;;;;;;28.97;31.40;97585.33;110017;1251;59678;-71
2022/05/13 08:32:51;;;;;;;7.20;5.20;;;;;;;28.79;31.86;97582.25;109937;1251;59746;-71
2022/05/13 08:35:20;;;;;;;6.50;5.30;;;;;;;29.02;31.03;97582.73;109931;1251;71504;-71
2022/05/13 08:37:52;;;;;;;6.10;4.30;;;;;;;28.62;31.41;97576.41;109959;1250;68990;-76
2022/05/13 08:40:50;;;;;;;5.10;4.60;;;;;;;29.20;31.18;97574.34;109845;1251;69648;-75
2022/05/13 08:43:21;;;;;;;5.70;4.20;;;;;;;29.87;31.01;97571.38;109951;1250;60126;-72
2022/05/13 08:45:52;;;;;;;5.20;4.70;;;;;;;30.50;30.37;97567.43;109798;1251;59675;-74
2022/05/13 08:48:34;;;;;;;7.60;6.10;;;;;;;30.97;29.55;97568.26;109809;1251;72615;-74
2022/05/13 08:51:21;;;;;;;7.60;5.40;;;;;;;30.73;28.15;97562.69;109797;1251;68701;-75
2022/05/13 08:53:57;;;;;;;6.90;5.10;;;;;;;30.09;29.20;97560.73;109771;1251;69398;-74
2022/05/13 08:56:29;;;;;;;5.50;5.00;;;;;;;30.60;29.16;97556.38;109890;1251;59789;-72
2022/05/13 08:59:07;;;;;;;5.00;4.50;;;;;;;30.63;28.40;97550.83;109821;1251;59607;-72
2022/05/13 09:01:41;;;;;;;6.30;5.10;;;;;;;30.96;28.83;97552.38;110154;1250;71628;-73
2022/05/13 09:04:42;;;;;;;5.40;4.50;;;;;;;31.66;28.72;97559.38;109925;1250;67955;-70
2022/05/13 09:07:29;;;;;;;6.40;5.00;;;;;;;31.87;28.05;97559.34;110014;1250;68454;-72
2022/05/13 09:10:00;;;;;;;5.50;4.70;;;;;;;32.02;26.67;97557.84;110152;1250;59777;-72
2022/05/13 09:13:00;;;;;;;6.90;6.20;;;;;;;31.96;27.13;97555.64;109904;1250;59691;-71
2022/05/13 09:15:48;;;;;;;6.20;5.60;;;;;;;32.49;26.58;97548.33;109816;1251;70872;-72
2022/05/13 09:18:32;;;;;;;5.60;4.90;;;;;;;32.94;26.23;97550.31;109929;1250;68770;-71
2022/05/13 09:21:17;;;;;;;7.60;4.90;;;;;;;32.96;25.38;97549.80;110170;1250;68661;-72
2022/05/13 09:23:48;;;;;;;6.30;5.70;;;;;;;33.02;24.71;97541.98;109964;1250;59675;-72
2022/05/13 09:26:20;;;;;;;6.40;5.10;;;;;;;32.62;25.70;97536.71;109845;1251;59760;-73
2022/05/13 09:29:10;;;;;;;6.20;4.60;;;;;;;32.25;25.40;97534.27;109987;1250;71371;-72
2022/05/13 09:31:50;;;;;;;5.80;4.10;;;;;;;32.52;24.79;97524.18;110204;1250;68763;-71
2022/05/13 09:34:25;;;;;;;6.00;5.40;;;;;;;32.17;24.55;97521.77;109938;1250;68784;-71
2022/05/13 09:37:06;;;;;;;4.70;4.20;;;;;;;31.90;24.04;97521.38;110169;1250;59681;-73
2022/05/13 09:39:40;;;;;;;6.30;5.70;;;;;;;32.08;25.28;97517.23;110182;1250;59595;-71
2022/05/13 09:42:36;;;;;;;5.00;4.50;;;;;;;32.66;25.59;97510.64;109983;1250;72248;-71
2022/05/13 09:45:23;;;;;;;4.30;3.70;;;;;;;31.95;22.90;97507.58;110246;1249;68589;-71
2022/05/13 09:48:12;;;;;;;3.80;3.50;;;;;;;32.51;22.70;97499.23;110185;1249;68459;-72
2022/05/13 09:50:46;;;;;;;5.60;3.80;;;;;;;33.30;21.82;97494.80;109802;1251;59756;-70
2022/05/13 09:53:21;;;;;;;4.80;2.60;;;;;;;33.18;20.09;97492.12;109827;1250;59684;-70
2022/05/13 09:55:52;;;;;;;3.80;2.70;;;;;;;32.89;19.86;97488.46;110177;1249;71583;-72
2022/05/13 09:58:27;;;;;;;4.10;2.80;;;;;;;33.03;20.13;97484.66;109348;1250;874462;-73
2022/05/13 10:01:01;;;;;;;2.80;2.30;;;;;;;33.24;18.06;97477.61;109979;1251;69228;-70
2022/05/13 10:03:36;;;;;;;6.70;3.00;;;;;;;32.33;18.45;97477.75;110008;1251;59598;-73
2022/05/13 10:06:10;;;;;;;3.80;2.70;;;;;;;32.70;18.08;97477.08;109922;1251;59675;-71
2022/05/13 10:13:57;;;;;;;3.30;2.40;;;;;;;32.94;18.99;97472.50;109921;1250;71576;-71
2022/05/13 10:14:44;;;;;;;3.50;3.20;;;;;;;34.33;20.22;97464.61;110025;1251;68269;-71
2022/05/13 10:17:24;;;;;;;4.20;3.00;;;;;;;34.56;19.56;97465.77;109968;1251;59811;-69
2022/05/13 10:20:00;;;;;;;4.30;3.90;;;;;;;34.58;20.72;97462.05;109808;1251;59679;-71
2022/05/13 10:22:50;;;;;;;5.60;3.80;;;;;;;34.84;21.00;97466.22;110050;1250;71045;-70
2022/05/13 10:25:55;;;;;;;4.30;3.80;;;;;;;34.72;20.22;97463.58;109811;1251;68717;-71
2022/05/13 10:28:39;;;;;;;6.70;4.90;;;;;;;33.32;21.43;97460.99;110023;1250;68727;-71
2022/05/13 10:31:14;;;;;;;5.10;4.50;;;;;;;33.49;21.32;97457.30;109931;1251;59744;-70
2022/05/13 10:34:01;;;;;;;6.30;4.80;;;;;;;33.20;21.91;97451.84;110020;1251;59609;-69
2022/05/13 10:36:40;;;;;;;4.90;4.40;;;;;;;33.20;22.15;97452.77;110030;1251;70553;-70
2022/05/13 10:39:36;;;;;;;6.20;4.70;;;;;;;33.38;21.91;97445.79;109899;1250;69692;-71
2022/05/13 10:42:15;;;;;;;6.50;4.70;;;;;;;33.45;22.20;97443.61;109940;1251;67679;-71
2022/05/13 10:44:53;;;;;;;7.00;4.20;;;;;;;33.63;21.97;97432.98;109940;1251;59701;-70
2022/05/13 10:47:32;;;;;;;5.40;4.70;;;;;;;33.68;22.00;97428.56;110013;1251;59782;-72
2022/05/13 10:50:17;;;;;;;6.70;4.80;;;;;;;33.91;21.95;97422.77;109716;1251;72540;-72
2022/05/13 10:52:52;;;;;;;6.80;4.30;;;;;;;33.78;21.95;97421.92;109903;1250;67677;-70
2022/05/13 10:55:41;;;;;;;4.80;4.30;;;;;;;33.65;21.90;97418.73;110008;1250;69577;-70
2022/05/13 10:58:35;;;;;;;5.50;4.90;;;;;;;33.30;22.98;97417.10;109997;1250;59570;-69
2022/05/13 11:01:48;;;;;;;5.00;4.50;;;;;;;33.16;22.33;97413.45;109962;1251;60177;-71
2022/05/13 11:04:30;;;;;;;5.20;4.80;;;;;;;33.14;23.14;97408.68;109970;1250;70583;-71
2022/05/13 11:07:44;;;;;;;4.80;4.30;;;;;;;33.51;22.53;97408.98;109993;1251;68506;-69
2022/05/13 11:11:01;;;;;;;5.10;4.60;;;;;;;33.50;22.03;97407.23;109509;1257;68510;-71
2022/05/13 11:13:50;;;;;;;4.70;4.30;;;;;;;33.51;22.43;97400.73;109163;1260;59727;-68
2022/05/13 11:16:35;;;;;;;7.20;5.20;;;;;;;33.64;22.26;97400.95;109172;1260;59740;-69
2022/05/13 11:19:05;;;;;;;5.40;4.80;;;;;;;33.29;22.99;97397.77;109199;1260;70703;-68
2022/05/13 11:22:05;;;;;;;5.50;4.90;;;;;;;32.89;22.64;97397.42;109167;1260;67874;-69
2022/05/13 11:27:43;;;;;;;5.00;4.10;;;;;;;32.55;24.43;97386.04;109156;1260;59727;-70
2022/05/13 11:30:25;;;;;;;5.20;4.50;;;;;;;32.60;23.98;97386.63;109154;1260;59781;-69
2022/05/13 11:32:57;;;;;;;;;;;;;;;32.38;23.57;97381.70;109035;1260;71650;-70
2022/05/13 11:35:42;;;;;;;4.40;4.00;;;;;;;31.66;23.93;97379.30;109211;1258;67864;-70
2022/05/13 11:38:22;;;;;;;11.90;4.80;;;;;;;31.25;25.35;97373.20;108968;1260;69508;-70
2022/05/13 11:41:13;;;;;;;4.70;4.00;;;;;;;31.10;25.54;97375.84;109118;1254;59653;-69
2022/05/13 11:44:05;;;;;;;5.00;4.50;;;;;;;30.83;25.23;97378.12;109614;1253;60104;-71
2022/05/13 11:46:50;;;;;;;4.60;4.00;;;;;;;30.46;25.60;97375.00;109676;1254;70246;-69
2022/05/13 11:49:32;;;;;;;5.00;4.20;;;;;;;30.23;26.51;97368.45;109646;1254;68403;-69
2022/05/13 11:52:36;;;;;;;5.70;4.70;;;;;;;29.94;27.59;97358.36;110025;1250;68834;-70
2022/05/13 11:55:41;;;;;;;5.50;4.60;;;;;;;29.66;28.24;97350.91;110027;1250;59818;-72
2022/05/13 11:58:47;;;;;;;4.40;4.00;;;;;;;29.24;29.47;97340.24;109896;1250;59614;-69
2022/05/13 12:01:34;;;;;;;5.50;3.40;;;;;;;29.33;28.44;97336.23;110131;1250;69801;-69
2022/05/13 12:04:14;;;;;;;3.10;2.80;;;;;;;29.35;29.16;97333.08;110193;1250;67756;-69
2022/05/13 12:06:49;;;;;;;4.00;3.30;;;;;;;29.46;28.41;97331.41;110110;1250;69448;-71
2022/05/13 12:09:36;;;;;;;3.60;2.80;;;;;;;29.50;28.26;97330.30;109980;1249;59714;-69
2022/05/13 12:12:08;;;;;;;3.90;3.00;;;;;;;29.57;27.59;97324.36;109962;1250;59713;-69
2022/05/13 12:14:58;;;;;;;5.00;3.20;;;;;;;29.63;27.75;97326.88;110136;1249;71740;-67
2022/05/13 12:17:44;;;;;;;3.60;3.00;;;;;;;29.68;28.70;97325.15;109940;1250;68475;-70
2022/05/13 12:20:34;;;;;;;3.60;3.30;;;;;;;29.70;27.69;97320.56;110130;1250;68647;-70
2022/05/13 12:23:35;;;;;;;4.20;2.80;;;;;;;29.54;27.95;97323.03;110085;1250;59733;-69
2022/05/13 12:26:12;;;;;;;3.80;2.90;;;;;;;29.55;27.67;97321.23;109918;1250;59716;-71
2022/05/13 12:28:48;;;;;;;4.70;3.70;;;;;;;29.54;27.08;97319.10;110054;1249;70844;-70